Time;durP1;ratioP1;P1;durP2;ratioP2;P2;SDS_P1;SDS_P2;PMS_P1;PMS_P2;Temp;Humidity;BMP_temperature;BMP_pressure;BME280_temperature;BME280_humidity;BME280_pressure;Samples;Min_cycle;Max_cycle;Signal;HPM_P1;HPM_P2
2021/05/17 00:00:59;;;;;;;;;;;;;;;18.55;48.18;99693.94;2103549;28;4032;-37
2021/05/17 00:02:01;;;;;;;;;;;;;;;18.54;48.06;99686.63;2104689;28;4185;-32
2021/05/17 00:03:02;;;;;;;;;;;;;;;18.54;47.99;99691.47;2102705;28;4086;-34
2021/05/17 00:04:05;;;;;;;;;;;;;;;18.53;48.11;99693.50;2096174;28;3969;-35
2021/05/17 00:05:06;;;;;;;;;;;;;;;18.53;48.04;99687.03;2095961;28;3872;-34
2021/05/17 00:06:08;;;;;;;;;;;;;;;18.52;48.04;99694.66;2105070;28;4167;-36
2021/05/17 00:07:09;;;;;;;;;;;;;;;18.51;48.10;99689.38;2104996;28;4082;-31
2021/05/17 00:08:10;;;;;;;;;;;;;;;18.51;47.93;99690.19;2105271;28;4005;-35
2021/05/17 00:09:11;;;;;;;;;;;;;;;18.50;48.01;99684.88;2104899;28;4027;-36
2021/05/17 00:10:12;;;;;;;;;;;;;;;18.50;47.89;99688.56;2104762;28;4069;-35
2021/05/17 00:11:14;;;;;;;;;;;;;;;18.49;47.88;99681.25;2105565;28;3818;-37
2021/05/17 00:12:15;;;;;;;;;;;;;;;18.50;47.79;99682.91;2104013;28;3815;-30
2021/05/17 00:13:16;;;;;;;;;;;;;;;18.50;47.92;99690.56;2105560;28;3683;-36
2021/05/17 00:14:17;;;;;;;;;;;;;;;18.48;47.78;99685.28;2104282;28;5413;-33
2021/05/17 00:15:19;;;;;;;;;;;;;;;18.47;48.02;99677.97;2104790;28;4063;-32
2021/05/17 00:16:20;;;;;;;;;;;;;;;18.47;48.05;99681.63;2105390;28;4100;-31
2021/05/17 00:17:21;;;;;;;;;;;;;;;18.47;48.06;99687.28;2104720;28;3864;-34
2021/05/17 00:18:22;;;;;;;;;;;;;;;18.45;47.87;99681.16;2105542;28;4194;-34
2021/05/17 00:19:23;;;;;;;;;;;;;;;18.45;48.13;99683.97;2104232;28;3886;-37
2021/05/17 00:20:25;;;;;;;;;;;;;;;18.45;47.98;99683.16;2105186;28;4073;-31
2021/05/17 00:21:26;;;;;;;;;;;;;;;18.45;47.88;99683.97;2105240;28;4075;-33
2021/05/17 00:22:27;;;;;;;;;;;;;;;18.43;47.90;99677.84;2104807;28;3879;-33
2021/05/17 00:23:28;;;;;;;;;;;;;;;18.44;47.98;99684.34;2105155;28;4032;-34
2021/05/17 00:24:31;;;;;;;;;;;;;;;18.43;47.84;99686.34;2104611;28;4084;-34
2021/05/17 00:25:32;;;;;;;;;;;;;;;18.43;48.01;99677.84;2104867;28;4149;-35
2021/05/17 00:26:33;;;;;;;;;;;;;;;18.43;47.82;99679.88;2104712;28;3882;-37
2021/05/17 00:27:34;;;;;;;;;;;;;;;18.43;47.99;99677.84;2104998;28;4240;-37
2021/05/17 00:28:36;;;;;;;;;;;;;;;18.42;47.88;99673.38;2104186;28;4152;-32
2021/05/17 00:29:37;;;;;;;;;;;;;;;18.42;47.96;99681.06;2105140;28;3890;-33
2021/05/17 00:30:38;;;;;;;;;;;;;;;18.40;47.96;99675.75;2105274;28;4032;-33
2021/05/17 00:31:39;;;;;;;;;;;;;;;18.40;47.78;99677.75;2104084;28;4026;-32
2021/05/17 00:32:41;;;;;;;;;;;;;;;18.41;47.65;99685.06;2105373;28;3898;-32
2021/05/17 00:33:42;;;;;;;;;;;;;;;18.39;47.83;99676.94;2104871;28;4055;-29
2021/05/17 00:34:43;;;;;;;;;;;;;;;18.38;47.79;99683.78;2104863;28;4044;-36
2021/05/17 00:35:44;;;;;;;;;;;;;;;18.39;47.73;99681.78;2105089;28;4027;-31
2021/05/17 00:36:45;;;;;;;;;;;;;;;18.39;47.67;99676.13;2104735;28;3859;-35
2021/05/17 00:37:47;;;;;;;;;;;;;;;18.38;47.79;99678.13;2104128;28;4035;-33
2021/05/17 00:38:48;;;;;;;;;;;;;;;18.39;47.85;99681.78;2104618;28;4059;-33
2021/05/17 00:39:49;;;;;;;;;;;;;;;18.38;47.76;99680.94;2104494;28;3883;-36
2021/05/17 00:40:50;;;;;;;;;;;;;;;18.38;47.63;99682.97;2104040;28;4046;-31
2021/05/17 00:41:51;;;;;;;;;;;;;;;18.38;47.95;99677.31;2105437;28;4025;-34
2021/05/17 00:42:53;;;;;;;;;;;;;;;18.38;47.71;99680.13;2105043;28;3850;-36
2021/05/17 00:43:54;;;;;;;;;;;;;;;18.37;47.70;99675.66;2104117;28;4124;-32
2021/05/17 00:44:55;;;;;;;;;;;;;;;18.36;47.73;99679.66;2104516;28;4164;-30
2021/05/17 00:45:56;;;;;;;;;;;;;;;18.36;47.74;99674.00;2104976;28;3952;-36
2021/05/17 00:46:58;;;;;;;;;;;;;;;18.35;47.78;99673.19;2105524;28;4015;-34
2021/05/17 00:47:59;;;;;;;;;;;;;;;18.35;47.88;99675.19;2104582;28;3888;-30
2021/05/17 00:49:01;;;;;;;;;;;;;;;18.34;47.78;99673.56;2103696;28;4022;-35
2021/05/17 00:50:02;;;;;;;;;;;;;;;18.34;47.95;99667.91;2104783;28;3839;-31
2021/05/17 00:51:03;;;;;;;;;;;;;;;18.35;47.61;99669.53;2104262;28;3901;-35
2021/05/17 00:52:04;;;;;;;;;;;;;;;18.34;47.87;99667.91;2104499;28;3897;-38
2021/05/17 00:53:06;;;;;;;;;;;;;;;18.34;47.60;99679.22;2104638;28;3817;-39
2021/05/17 00:54:07;;;;;;;;;;;;;;;18.33;47.90;99671.91;2105368;28;3987;-36
2021/05/17 00:55:08;;;;;;;;;;;;;;;18.32;47.71;99668.25;2106767;28;4057;-35
2021/05/17 00:56:09;;;;;;;;;;;;;;;18.32;47.83;99670.28;2106197;28;3822;-34
2021/05/17 00:57:11;;;;;;;;;;;;;;;18.32;47.84;99670.28;2105477;28;4000;-33
2021/05/17 00:58:12;;;;;;;;;;;;;;;18.31;47.88;99671.47;2106293;28;4031;-37
2021/05/17 00:59:13;;;;;;;;;;;;;;;18.30;47.93;99661.31;2106114;28;4053;-33
2021/05/17 01:00:14;;;;;;;;;;;;;;;18.29;47.95;99660.50;2106458;28;4002;-30
2021/05/17 01:01:15;;;;;;;;;;;;;;;18.29;47.83;99671.81;2106014;28;3783;-35
2021/05/17 01:02:17;;;;;;;;;;;;;;;18.28;47.93;99663.66;2106223;28;4822;-39
2021/05/17 01:03:18;;;;;;;;;;;;;;;18.30;47.73;99667.78;2106530;28;3891;-35
2021/05/17 01:04:19;;;;;;;;;;;;;;;18.30;47.92;99664.13;2104996;28;3900;-36
2021/05/17 01:05:20;;;;;;;;;;;;;;;18.29;47.94;99671.81;2106179;28;4040;-37
2021/05/17 01:06:21;;;;;;;;;;;;;;;18.28;47.98;99663.66;2105902;28;3927;-37
2021/05/17 01:07:26;;;;;;;;;;;;;;;18.28;47.77;99669.34;2105032;28;4063;-35
2021/05/17 01:08:27;;;;;;;;;;;;;;;18.27;47.85;99664.88;2105767;28;4033;-35
2021/05/17 01:09:30;;;;;;;;;;;;;;;18.28;47.87;99658.00;2106788;28;4065;-34
2021/05/17 01:10:31;;;;;;;;;;;;;;;18.28;47.99;99663.66;2105917;28;4208;-34
2021/05/17 01:11:32;;;;;;;;;;;;;;;18.28;47.98;99672.16;2106746;28;4102;-36
2021/05/17 01:12:33;;;;;;;;;;;;;;;18.28;48.05;99663.66;2105714;28;3951;-35
2021/05/17 01:13:35;;;;;;;;;;;;;;;18.28;48.12;99663.66;2105419;28;4035;-36
2021/05/17 01:14:36;;;;;;;;;;;;;;;18.29;48.22;99665.34;2106334;28;3902;-34
2021/05/17 01:15:37;;;;;;;;;;;;;;;18.27;48.17;99667.69;2106961;28;3839;-31
2021/05/17 01:16:38;;;;;;;;;;;;;;;18.26;47.94;99664.03;2097465;28;3888;-33
2021/05/17 01:17:40;;;;;;;;;;;;;;;18.25;47.99;99663.22;2106023;28;4008;-33
2021/05/17 01:18:41;;;;;;;;;;;;;;;18.24;48.02;99664.41;2106401;28;3829;-33
2021/05/17 01:19:42;;;;;;;;;;;;;;;18.24;48.03;99667.22;2106093;28;3878;-40
2021/05/17 01:20:45;;;;;;;;;;;;;;;18.24;48.00;99666.41;2106840;28;4071;-35
2021/05/17 01:21:46;;;;;;;;;;;;;;;18.24;48.15;99681.38;2105949;28;4022;-34
2021/05/17 01:23:55;;;;;;;;;;;;;;;18.23;48.15;99673.28;2105881;28;3998;-35
2021/05/17 01:24:56;;;;;;;;;;;;;;;18.24;48.09;99674.91;2106065;28;4135;-38
2021/05/17 01:25:58;;;;;;;;;;;;;;;18.23;48.16;99674.09;2105896;28;3925;-36
2021/05/17 01:26:59;;;;;;;;;;;;;;;18.23;48.17;99681.75;2104270;28;3899;-34
2021/05/17 01:28:01;;;;;;;;;;;;;;;18.22;48.29;99678.13;2103897;28;3842;-32
2021/05/17 01:29:03;;;;;;;;;;;;;;;18.22;48.25;99680.94;2104120;28;3856;-33
2021/05/17 01:30:04;;;;;;;;;;;;;;;18.21;48.14;99670.78;2103803;28;4036;-37
2021/05/17 01:31:05;;;;;;;;;;;;;;;18.22;48.12;99677.25;2103552;28;4053;-33
2021/05/17 01:32:08;;;;;;;;;;;;;;;18.21;48.21;99673.63;2103276;28;3985;-35
2021/05/17 01:33:09;;;;;;;;;;;;;;;18.21;48.36;99675.63;2106321;28;3890;-35
2021/05/17 01:34:14;;;;;;;;;;;;;;;18.21;48.22;99675.63;2104178;28;4101;-37
2021/05/17 01:35:15;;;;;;;;;;;;;;;18.21;48.34;99678.47;2106504;28;4016;-33
2021/05/17 01:36:16;;;;;;;;;;;;;;;18.21;48.34;99670.78;2105619;28;3667;-33
2021/05/17 01:37:18;;;;;;;;;;;;;;;18.20;48.40;99683.31;2104644;28;5392;-35
2021/05/17 01:38:19;;;;;;;;;;;;;;;18.19;48.26;99678.81;2106422;28;4212;-33
2021/05/17 01:39:20;;;;;;;;;;;;;;;18.19;48.36;99681.63;2105486;28;3887;-39
2021/05/17 01:40:21;;;;;;;;;;;;;;;18.18;48.45;99685.66;2105420;28;4125;-37
2021/05/17 01:41:22;;;;;;;;;;;;;;;18.18;48.52;99680.00;2105859;28;4115;-37
2021/05/17 01:42:24;;;;;;;;;;;;;;;18.19;48.33;99680.81;2105435;28;4073;-34
2021/05/17 01:43:25;;;;;;;;;;;;;;;18.18;48.32;99674.34;2105618;28;4031;-35
2021/05/17 01:44:26;;;;;;;;;;;;;;;18.18;48.34;99677.19;2105326;28;3882;-35
2021/05/17 01:45:27;;;;;;;;;;;;;;;18.17;48.49;99684.03;2106159;28;3893;-37
2021/05/17 01:46:29;;;;;;;;;;;;;;;18.17;48.39;99680.38;2104730;28;4092;-33
2021/05/17 01:47:30;;;;;;;;;;;;;;;18.17;48.73;99681.22;2106187;28;4057;-33
2021/05/17 01:48:31;;;;;;;;;;;;;;;18.17;48.70;99680.38;2105363;28;4054;-38
2021/05/17 01:49:33;;;;;;;;;;;;;;;18.17;48.55;99680.38;2105842;28;4083;-36
2021/05/17 01:50:34;;;;;;;;;;;;;;;18.16;48.79;99673.88;2105906;28;4080;-34
2021/05/17 01:51:35;;;;;;;;;;;;;;;18.17;48.62;99674.72;2105226;28;4056;-36
2021/05/17 01:52:36;;;;;;;;;;;;;;;18.16;48.59;99668.22;2105355;28;3849;-34
2021/05/17 01:53:38;;;;;;;;;;;;;;;18.16;48.83;99673.06;2105716;28;3895;-34
2021/05/17 01:54:39;;;;;;;;;;;;;;;18.15;48.81;99680.72;2104927;28;4059;-31
2021/05/17 01:55:40;;;;;;;;;;;;;;;18.15;48.76;99674.25;2106012;28;4988;-33
2021/05/17 01:56:41;;;;;;;;;;;;;;;18.14;48.95;99676.28;2104355;28;4042;-38
2021/05/17 01:57:43;;;;;;;;;;;;;;;18.14;48.95;99683.91;2105796;28;4047;-34
2021/05/17 01:58:44;;;;;;;;;;;;;;;18.15;48.84;99682.75;2105505;28;4093;-33
2021/05/17 01:59:45;;;;;;;;;;;;;;;18.15;48.63;99686.41;2105762;28;4099;-34
2021/05/17 02:00:46;;;;;;;;;;;;;;;18.16;48.96;99673.06;2105879;28;4049;-36
2021/05/17 02:01:48;;;;;;;;;;;;;;;18.15;48.98;99677.91;2105640;28;4063;-43
2021/05/17 02:02:49;;;;;;;;;;;;;;;18.15;48.93;99677.91;2106222;28;4028;-36
2021/05/17 02:03:51;;;;;;;;;;;;;;;18.15;49.15;99679.91;2104546;28;4063;-40
2021/05/17 02:04:53;;;;;;;;;;;;;;;18.15;49.17;99679.91;2104445;28;4033;-32
2021/05/17 02:05:54;;;;;;;;;;;;;;;18.15;49.03;99677.91;2104849;28;3832;-33
2021/05/17 02:06:55;;;;;;;;;;;;;;;18.14;48.96;99681.94;2104148;28;4384;-34
2021/05/17 02:07:57;;;;;;;;;;;;;;;18.14;49.16;99676.28;2104484;28;3861;-35
2021/05/17 02:08:58;;;;;;;;;;;;;;;18.14;49.00;99683.91;2105352;28;4024;-36
2021/05/17 02:09:59;;;;;;;;;;;;;;;18.14;49.25;99686.75;2105364;28;4003;-38
2021/05/17 02:11:00;;;;;;;;;;;;;;;18.14;48.99;99687.59;2105092;28;3837;-37
2021/05/17 02:12:01;;;;;;;;;;;;;;;18.13;49.20;99697.25;2105224;28;4027;-31
2021/05/17 02:13:03;;;;;;;;;;;;;;;18.13;49.23;99694.41;2106032;28;3870;-35
2021/05/17 02:14:04;;;;;;;;;;;;;;;18.13;49.19;99697.25;2105533;28;4477;-38
2021/05/17 02:15:05;;;;;;;;;;;;;;;18.13;49.17;99697.25;2105730;28;5110;-39
2021/05/17 02:16:08;;;;;;;;;;;;;;;18.13;49.58;99699.25;2104655;28;3991;-34
2021/05/17 02:17:09;;;;;;;;;;;;;;;18.13;49.59;99696.44;2104142;28;3997;-35
2021/05/17 02:18:10;;;;;;;;;;;;;;;18.14;49.49;99700.91;2105974;28;4174;-36
2021/05/17 02:19:11;;;;;;;;;;;;;;;18.14;49.63;99695.22;2105793;28;4070;-33
2021/05/17 02:20:13;;;;;;;;;;;;;;;18.14;49.61;99703.72;2104367;28;4000;-35
2021/05/17 02:21:14;;;;;;;;;;;;;;;18.14;49.48;99701.75;2105570;28;3845;-37
2021/05/17 02:22:15;;;;;;;;;;;;;;;18.16;49.57;99707.03;2104808;28;3804;-38
2021/05/17 02:23:16;;;;;;;;;;;;;;;18.13;49.58;99697.25;2105647;28;4055;-42
2021/05/17 02:24:18;;;;;;;;;;;;;;;18.14;49.72;99696.09;2104406;28;4059;-33
2021/05/17 02:25:19;;;;;;;;;;;;;;;18.14;49.98;99692.41;2104348;28;4068;-38
2021/05/17 02:26:20;;;;;;;;;;;;;;;18.14;50.03;99690.41;2106206;28;4040;-36
2021/05/17 02:27:21;;;;;;;;;;;;;;;18.15;50.11;99694.88;2104627;28;4080;-35
2021/05/17 02:28:23;;;;;;;;;;;;;;;18.14;49.99;99684.75;2104602;28;4033;-36
2021/05/17 02:29:24;;;;;;;;;;;;;;;18.14;50.42;99692.41;2106216;28;3889;-37
2021/05/17 02:30:25;;;;;;;;;;;;;;;18.13;50.21;99688.75;2104798;28;3923;-38
2021/05/17 02:31:26;;;;;;;;;;;;;;;18.14;50.10;99693.25;2105368;28;4168;-34
2021/05/17 02:32:27;;;;;;;;;;;;;;;18.15;50.37;99694.06;2103928;28;4155;-33
2021/05/17 02:33:29;;;;;;;;;;;;;;;18.15;50.37;99697.72;2104899;28;4060;-35
2021/05/17 02:34:30;;;;;;;;;;;;;;;18.15;50.28;99692.06;2104956;28;4041;-37
2021/05/17 02:35:31;;;;;;;;;;;;;;;18.15;50.34;99696.91;2104524;28;3881;-35
2021/05/17 02:36:32;;;;;;;;;;;;;;;18.15;50.64;99697.72;2105749;28;4048;-36
2021/05/17 02:37:34;;;;;;;;;;;;;;;18.15;50.68;99696.91;2104684;28;4028;-36
2021/05/17 02:38:35;;;;;;;;;;;;;;;18.15;50.81;99692.06;2105199;28;4069;-31
2021/05/17 02:39:36;;;;;;;;;;;;;;;18.14;50.73;99693.25;2105595;28;3848;-31
2021/05/17 02:40:37;;;;;;;;;;;;;;;18.15;50.83;99696.91;2104979;28;4048;-32
2021/05/17 02:41:38;;;;;;;;;;;;;;;18.15;50.87;99694.88;2105366;28;3867;-34
2021/05/17 02:42:40;;;;;;;;;;;;;;;18.16;51.05;99702.19;2105447;28;3879;-35
2021/05/17 02:43:41;;;;;;;;;;;;;;;18.15;51.25;99700.56;2104473;28;3942;-35
2021/05/17 02:44:42;;;;;;;;;;;;;;;18.15;51.00;99697.72;2105694;28;3889;-35
2021/05/17 02:45:43;;;;;;;;;;;;;;;18.15;51.01;99699.72;2095493;28;4044;-34
2021/05/17 02:46:45;;;;;;;;;;;;;;;18.15;51.27;99706.22;2096394;28;4254;-38
2021/05/17 02:47:46;;;;;;;;;;;;;;;18.15;51.33;99699.72;2105483;28;3904;-35
2021/05/17 02:48:47;;;;;;;;;;;;;;;18.14;51.11;99710.25;2104241;28;3909;-34
2021/05/17 02:49:49;;;;;;;;;;;;;;;18.15;51.37;99699.72;2105720;28;4146;-33
2021/05/17 02:50:50;;;;;;;;;;;;;;;18.15;51.26;99706.22;2105905;28;4052;-33
2021/05/17 02:51:51;;;;;;;;;;;;;;;18.15;51.33;99706.22;2105160;28;4031;-35
2021/05/17 02:52:52;;;;;;;;;;;;;;;18.16;51.51;99707.03;2103886;28;3877;-33
2021/05/17 02:53:53;;;;;;;;;;;;;;;18.16;51.56;99707.03;2105503;28;4038;-36
2021/05/17 02:54:55;;;;;;;;;;;;;;;18.15;51.49;99706.22;2105345;28;4018;-34
2021/05/17 02:55:56;;;;;;;;;;;;;;;18.14;51.67;99704.56;2104908;28;4029;-35
2021/05/17 02:56:57;;;;;;;;;;;;;;;18.15;51.50;99705.38;2104715;28;4042;-35
2021/05/17 02:57:59;;;;;;;;;;;;;;;18.15;51.65;99708.22;2104440;28;4087;-38
2021/05/17 02:59:00;;;;;;;;;;;;;;;18.14;51.69;99707.41;2105456;28;4062;-38
2021/05/17 03:00:02;;;;;;;;;;;;;;;18.15;51.68;99705.38;2105274;28;4112;-30
2021/05/17 03:01:03;;;;;;;;;;;;;;;18.15;51.72;99711.06;2104317;28;4028;-36
2021/05/17 03:02:04;;;;;;;;;;;;;;;18.15;51.57;99711.06;2105429;28;4056;-39
2021/05/17 03:03:05;;;;;;;;;;;;;;;18.14;51.71;99707.41;2105249;28;3830;-37
2021/05/17 03:04:07;;;;;;;;;;;;;;;18.14;51.75;99715.03;2104649;28;3961;-31
2021/05/17 03:05:08;;;;;;;;;;;;;;;18.13;51.81;99708.56;2104851;28;4010;-38
2021/05/17 03:06:09;;;;;;;;;;;;;;;18.15;51.79;99705.38;2104661;28;3981;-33
2021/05/17 03:07:10;;;;;;;;;;;;;;;18.14;51.85;99707.41;2105202;28;3819;-38
2021/05/17 03:08:12;;;;;;;;;;;;;;;18.14;51.98;99709.38;2104053;28;3869;-33
2021/05/17 03:09:13;;;;;;;;;;;;;;;18.14;52.11;99707.41;2104952;28;5992;-37
2021/05/17 03:10:15;;;;;;;;;;;;;;;18.14;51.89;99707.41;2104818;28;3970;-33
2021/05/17 03:11:16;;;;;;;;;;;;;;;18.14;52.00;99704.56;2105177;28;3992;-37
2021/05/17 03:12:20;;;;;;;;;;;;;;;18.15;51.94;99711.06;2104803;28;4560;-31
2021/05/17 03:13:21;;;;;;;;;;;;;;;18.14;51.96;99706.56;2104141;28;4039;-32
2021/05/17 03:14:22;;;;;;;;;;;;;;;18.14;51.97;99713.06;2104497;28;4055;-36
2021/05/17 03:15:25;;;;;;;;;;;;;;;18.14;52.20;99710.25;2106025;28;4134;-33
2021/05/17 03:16:26;;;;;;;;;;;;;;;18.15;52.09;99713.88;2104659;28;4039;-37
2021/05/17 03:17:28;;;;;;;;;;;;;;;18.14;52.17;99720.72;2104900;28;4257;-36
2021/05/17 03:18:29;;;;;;;;;;;;;;;18.14;52.01;99713.06;2104973;28;4053;-31
2021/05/17 03:19:30;;;;;;;;;;;;;;;18.13;52.01;99722.72;2105234;28;3868;-36
2021/05/17 03:20:31;;;;;;;;;;;;;;;18.13;52.28;99719.06;2105141;28;4048;-36
2021/05/17 03:21:32;;;;;;;;;;;;;;;18.14;51.99;99721.56;2105317;28;3895;-38
2021/05/17 03:22:34;;;;;;;;;;;;;;;18.14;52.33;99723.53;2104667;28;4125;-31
2021/05/17 03:23:35;;;;;;;;;;;;;;;18.13;52.09;99725.56;2105084;28;4069;-31
2021/05/17 03:24:36;;;;;;;;;;;;;;;18.13;52.28;99722.72;2105194;28;4031;-36
2021/05/17 03:25:37;;;;;;;;;;;;;;;18.13;52.23;99722.72;2104797;28;3923;-37
2021/05/17 03:26:39;;;;;;;;;;;;;;;18.13;52.26;99724.72;2104661;28;4971;-31
2021/05/17 03:27:40;;;;;;;;;;;;;;;18.13;52.24;99724.72;2105309;28;4140;-33
2021/05/17 03:28:41;;;;;;;;;;;;;;;18.13;52.42;99727.56;2105318;28;4026;-31
2021/05/17 03:29:43;;;;;;;;;;;;;;;18.14;52.19;99732.88;2104327;28;3872;-40
2021/05/17 03:30:44;;;;;;;;;;;;;;;18.17;51.88;99732.16;2105041;28;4020;-29
2021/05/17 03:31:45;;;;;;;;;;;;;;;18.20;51.65;99730.63;2104594;28;4059;-29
2021/05/17 03:32:46;;;;;;;;;;;;;;;18.23;51.38;99722.22;2104488;28;4077;-33
2021/05/17 03:33:48;;;;;;;;;;;;;;;18.28;51.63;99731.63;2104942;28;3847;-34
2021/05/17 03:34:49;;;;;;;;;;;;;;;18.31;51.51;99730.91;2104366;28;4097;-33
2021/05/17 03:35:51;;;;;;;;;;;;;;;18.32;51.42;99724.06;2104956;28;4495;-31
2021/05/17 03:36:52;;;;;;;;;;;;;;;18.33;51.44;99723.72;2105160;28;4066;-33
2021/05/17 03:37:53;;;;;;;;;;;;;;;18.34;51.37;99733.84;2105173;28;4030;-42
2021/05/17 03:38:54;;;;;;;;;;;;;;;18.36;51.35;99727.78;2105177;28;3860;-30
2021/05/17 03:39:56;;;;;;;;;;;;;;;18.37;51.16;99727.44;2105325;28;3959;-34
2021/05/17 03:40:57;;;;;;;;;;;;;;;18.38;51.30;99729.09;2105224;28;3823;-31
2021/05/17 03:41:58;;;;;;;;;;;;;;;18.43;51.80;99728.00;2102068;28;3891;-31
2021/05/17 03:42:59;;;;;;;;;;;;;;;18.44;51.36;99726.81;2104467;28;4065;-35
2021/05/17 03:44:00;;;;;;;;;;;;;;;18.43;51.43;99726.00;2105145;28;4024;-34
2021/05/17 03:45:02;;;;;;;;;;;;;;;18.47;51.91;99728.94;2105132;28;4056;-34
2021/05/17 03:46:03;;;;;;;;;;;;;;;18.47;51.61;99735.44;2104619;28;3879;-33
2021/05/17 03:47:04;;;;;;;;;;;;;;;18.48;51.59;99727.75;2104355;28;3940;-34
2021/05/17 03:48:06;;;;;;;;;;;;;;;18.48;51.38;99730.56;2104704;28;3960;-34
2021/05/17 03:49:08;;;;;;;;;;;;;;;18.48;51.09;99731.41;2105238;28;3996;-34
2021/05/17 03:50:09;;;;;;;;;;;;;;;18.50;51.28;99736.72;2104787;28;4041;-32
2021/05/17 03:51:10;;;;;;;;;;;;;;;18.52;51.38;99731.50;2104297;28;4017;-34
2021/05/17 03:52:11;;;;;;;;;;;;;;;18.53;51.29;99738.81;2105153;28;3849;-32
2021/05/17 03:53:12;;;;;;;;;;;;;;;18.53;51.46;99741.66;2104457;28;4045;-35
2021/05/17 03:54:14;;;;;;;;;;;;;;;18.54;51.29;99737.63;2105199;28;3806;-35
2021/05/17 03:55:15;;;;;;;;;;;;;;;18.56;51.28;99742.94;2104517;28;3944;-34
2021/05/17 03:56:16;;;;;;;;;;;;;;;18.56;51.28;99746.59;2104969;28;3974;-33
2021/05/17 03:57:17;;;;;;;;;;;;;;;18.57;51.26;99742.56;2104989;28;4730;-37
2021/05/17 03:58:18;;;;;;;;;;;;;;;18.57;51.18;99739.72;2104655;28;4017;-36
2021/05/17 03:59:20;;;;;;;;;;;;;;;18.59;51.30;99742.19;2105022;28;4052;-35
2021/05/17 04:00:21;;;;;;;;;;;;;;;18.59;51.28;99754.34;2104078;28;4042;-36
2021/05/17 04:01:22;;;;;;;;;;;;;;;18.60;51.36;99747.50;2104444;28;3867;-33
2021/05/17 04:02:24;;;;;;;;;;;;;;;18.60;51.39;99744.66;2104992;28;4023;-30
2021/05/17 04:03:26;;;;;;;;;;;;;;;18.63;51.29;99748.78;2104975;28;5049;-31
2021/05/17 04:04:31;;;;;;;;;;;;;;;18.63;51.31;99755.25;2105709;28;4020;-36
2021/05/17 04:05:37;;;;;;;;;;;;;;;18.64;51.16;99754.09;2103661;28;3901;-35
2021/05/17 04:06:48;;;;;;;;;;;;;;;18.64;51.14;99751.25;2104956;28;4065;-33
2021/05/17 04:14:23;;;;;;;;;;;;;;;18.73;51.10;99751.06;2104497;28;4812;-31
2021/05/17 04:15:24;;;;;;;;;;;;;;;18.73;51.43;99755.94;2105091;28;4046;-38
2021/05/17 04:16:25;;;;;;;;;;;;;;;18.74;51.22;99755.56;2104665;28;4034;-31
2021/05/17 04:17:27;;;;;;;;;;;;;;;18.75;51.22;99756.44;2105324;28;4046;-32
2021/05/17 04:18:28;;;;;;;;;;;;;;;18.76;51.09;99758.06;2105034;28;4036;-33
2021/05/17 04:19:29;;;;;;;;;;;;;;;18.76;51.24;99756.03;2104601;28;4069;-35
2021/05/17 04:20:30;;;;;;;;;;;;;;;18.77;51.26;99757.69;2104320;28;4068;-38
2021/05/17 04:21:32;;;;;;;;;;;;;;;18.78;51.17;99753.69;2104548;28;4037;-34
2021/05/17 04:22:33;;;;;;;;;;;;;;;18.79;51.38;99754.50;2104740;28;3885;-37
2021/05/17 04:23:34;;;;;;;;;;;;;;;18.79;51.03;99758.16;2105407;28;4064;-35
2021/05/17 04:24:35;;;;;;;;;;;;;;;18.80;51.19;99754.16;2104158;28;4051;-33
2021/05/17 04:25:37;;;;;;;;;;;;;;;18.80;51.10;99759.81;2104577;28;3919;-35
2021/05/17 04:26:38;;;;;;;;;;;;;;;18.81;51.08;99764.28;2105211;28;4066;-34
2021/05/17 04:27:39;;;;;;;;;;;;;;;18.82;51.09;99765.09;2105354;28;4034;-32
2021/05/17 04:28:40;;;;;;;;;;;;;;;18.83;51.27;99763.91;2104664;28;4042;-32
2021/05/17 04:29:42;;;;;;;;;;;;;;;18.84;51.07;99760.72;2106050;28;4055;-37
2021/05/17 04:30:43;;;;;;;;;;;;;;;18.85;51.05;99768.00;2106578;28;4550;-36
2021/05/17 04:31:46;;;;;;;;;;;;;;;18.85;51.16;99761.53;2106007;28;4053;-33
2021/05/17 04:32:47;;;;;;;;;;;;;;;18.85;51.27;99767.19;2106206;28;3891;-33
2021/05/17 04:33:48;;;;;;;;;;;;;;;18.87;51.09;99773.34;2107177;28;3906;-33
2021/05/17 04:34:49;;;;;;;;;;;;;;;18.87;51.00;99764.84;2106046;28;3888;-31
2021/05/17 04:35:50;;;;;;;;;;;;;;;18.88;51.03;99766.47;2106567;28;4041;-34
2021/05/17 04:36:52;;;;;;;;;;;;;;;18.88;51.04;99761.66;2106162;28;4137;-36
2021/05/17 04:37:53;;;;;;;;;;;;;;;18.88;51.31;99761.66;2106446;28;5208;-31
2021/05/17 04:38:54;;;;;;;;;;;;;;;18.89;51.19;99766.13;2106810;28;4109;-36
2021/05/17 04:39:55;;;;;;;;;;;;;;;18.90;51.14;99764.91;2106893;28;4040;-31
2021/05/17 04:40:57;;;;;;;;;;;;;;;18.91;51.24;99768.56;2105727;28;3963;-34
2021/05/17 04:41:58;;;;;;;;;;;;;;;18.91;51.17;99766.59;2106653;28;4015;-35
2021/05/17 04:42:59;;;;;;;;;;;;;;;18.94;51.11;99772.69;2105964;28;4094;-31
2021/05/17 04:44:00;;;;;;;;;;;;;;;18.92;51.17;99776.72;2106943;28;3868;-35
2021/05/17 04:45:01;;;;;;;;;;;;;;;18.95;50.96;99778.00;2106631;28;3929;-34
2021/05/17 04:46:03;;;;;;;;;;;;;;;18.95;51.08;99785.69;2105662;28;3896;-37
2021/05/17 04:47:04;;;;;;;;;;;;;;;18.96;51.18;99773.97;2106495;28;3832;-37
2021/05/17 04:48:06;;;;;;;;;;;;;;;18.97;50.99;99771.97;2105392;28;4020;-35
2021/05/17 04:49:07;;;;;;;;;;;;;;;18.97;51.07;99772.81;2106540;28;4176;-33
2021/05/17 04:50:08;;;;;;;;;;;;;;;18.98;51.03;99779.28;2106013;28;4366;-35
2021/05/17 04:51:10;;;;;;;;;;;;;;;18.99;50.93;99775.25;2106388;28;3886;-32
2021/05/17 04:52:11;;;;;;;;;;;;;;;18.99;51.00;99780.91;2106750;28;3875;-33
2021/05/17 04:53:12;;;;;;;;;;;;;;;19.00;51.08;99782.59;2105495;28;4033;-36
2021/05/17 04:54:13;;;;;;;;;;;;;;;19.00;51.04;99780.56;2104963;28;3985;-30
2021/05/17 04:55:14;;;;;;;;;;;;;;;19.01;51.01;99778.56;2106926;28;3947;-34
2021/05/17 04:56:16;;;;;;;;;;;;;;;19.01;51.12;99775.72;2106034;28;4978;-31
2021/05/17 04:57:17;;;;;;;;;;;;;;;19.01;51.20;99776.53;2106349;28;4515;-36
2021/05/17 04:58:33;;;;;;;;;;;;;;;19.02;51.12;99783.88;2106126;28;3860;-39
2021/05/17 04:59:34;;;;;;;;;;;;;;;19.02;50.98;99778.19;2105693;28;4137;-31
2021/05/17 05:00:36;;;;;;;;;;;;;;;19.03;51.22;99777.00;2105002;28;4037;-32
2021/05/17 05:01:37;;;;;;;;;;;;;;;19.03;51.01;99785.50;2106296;28;4211;-32
2021/05/17 05:02:39;;;;;;;;;;;;;;;19.05;51.10;99782.28;2098109;28;4240;-34
2021/05/17 05:03:40;;;;;;;;;;;;;;;19.04;51.15;99787.13;2105423;28;3980;-39
2021/05/17 05:04:41;;;;;;;;;;;;;;;19.05;51.12;99788.81;2105506;28;3873;-36
2021/05/17 05:05:42;;;;;;;;;;;;;;;19.05;51.00;99794.47;2106925;28;3892;-36
2021/05/17 05:06:44;;;;;;;;;;;;;;;19.07;51.02;99782.75;2105263;28;3929;-35
2021/05/17 05:07:46;;;;;;;;;;;;;;;19.06;51.14;99793.28;2106007;28;3892;-32
2021/05/17 05:08:47;;;;;;;;;;;;;;;19.08;51.10;99799.41;2105942;28;3872;-32
2021/05/17 05:09:48;;;;;;;;;;;;;;;19.07;51.04;99794.91;2106161;28;4020;-38
2021/05/17 05:10:50;;;;;;;;;;;;;;;19.07;50.98;99789.25;2104649;28;4092;-33
2021/05/17 05:11:51;;;;;;;;;;;;;;;19.08;51.02;99790.91;2105761;28;4008;-33
2021/05/17 05:12:52;;;;;;;;;;;;;;;19.09;51.06;99798.22;2106044;28;4805;-37
2021/05/17 05:13:53;;;;;;;;;;;;;;;19.10;51.08;99799.03;2106622;28;4132;-34
2021/05/17 05:14:55;;;;;;;;;;;;;;;19.10;51.08;99799.03;2105880;28;3983;-31
2021/05/17 05:15:56;;;;;;;;;;;;;;;19.10;50.92;99799.88;2105491;28;4097;-36
2021/05/17 05:16:57;;;;;;;;;;;;;;;19.10;51.10;99796.19;2106324;28;4032;-37
2021/05/17 05:17:59;;;;;;;;;;;;;;;19.13;51.06;99795.47;2105964;28;4024;-39
2021/05/17 05:19:00;;;;;;;;;;;;;;;19.12;50.86;99799.50;2105780;28;4046;-33
2021/05/17 05:20:01;;;;;;;;;;;;;;;19.13;51.30;99799.13;2105377;28;4110;-35
2021/05/17 05:21:02;;;;;;;;;;;;;;;19.13;50.96;99795.47;2106127;28;4099;-33
2021/05/17 05:22:04;;;;;;;;;;;;;;;19.13;50.97;99796.31;2105951;28;4012;-38
2021/05/17 05:23:05;;;;;;;;;;;;;;;19.13;51.01;99799.13;2106040;28;4085;-33
2021/05/17 05:24:06;;;;;;;;;;;;;;;19.13;51.16;99793.47;2106082;28;4053;-36
2021/05/17 05:25:08;;;;;;;;;;;;;;;19.15;51.00;99807.25;2105580;28;3987;-32
2021/05/17 05:26:37;;;;;;;;;;;;;;;19.14;51.01;99797.13;2105420;28;3978;-34
2021/05/17 05:27:44;;;;;;;;;;;;;;;19.16;51.15;99802.41;2105494;28;5825;-36
2021/05/17 05:28:58;;;;;;;;;;;;;;;19.16;51.15;99797.59;2105222;28;3928;-33
2021/05/17 05:30:11;;;;;;;;;;;;;;;19.17;51.15;99801.25;2106028;28;4056;-36
2021/05/17 05:31:21;;;;;;;;;;;;;;;19.16;51.08;99797.59;2105373;28;4009;-41
2021/05/17 05:32:27;;;;;;;;;;;;;;;19.17;51.01;99804.06;2105072;28;4632;-41
2021/05/17 05:33:29;;;;;;;;;;;;;;;19.18;51.01;99800.84;2105605;28;4054;-34